createdAt,value
2022-12-03T00:00:26.625Z,13.70
2022-12-03T00:02:53.084Z,12.65
2022-12-03T00:05:19.514Z,16.77
2022-12-03T00:07:46.100Z,17.80
2022-12-03T00:10:12.869Z,14.48
2022-12-03T00:12:39.239Z,13.35
2022-12-03T00:15:08.691Z,16.55
2022-12-03T00:17:35.117Z,15.30
2022-12-03T00:20:01.626Z,15.77
2022-12-03T00:22:27.956Z,14.40
2022-12-03T00:24:54.642Z,14.98
2022-12-03T00:27:21.254Z,17.60
2022-12-03T00:29:47.683Z,16.80
2022-12-03T00:32:14.123Z,15.68
2022-12-03T00:34:40.486Z,18.33
2022-12-03T00:37:06.872Z,16.17
2022-12-03T00:39:33.208Z,16.50
2022-12-03T00:41:59.567Z,20.60
2022-12-03T00:44:26.037Z,15.77
2022-12-03T00:46:52.404Z,17.23
2022-12-03T00:49:18.798Z,16.88
2022-12-03T00:51:45.224Z,21.35
2022-12-03T00:54:11.797Z,15.60
2022-12-03T00:56:38.136Z,18.92
2022-12-03T00:59:04.451Z,18.27
2022-12-03T01:01:30.900Z,18.80
2022-12-03T01:03:57.468Z,16.42
2022-12-03T01:06:57.900Z,14.88
2022-12-03T01:09:24.226Z,15.73
2022-12-03T01:11:50.572Z,19.67
2022-12-03T01:14:19.549Z,15.43
2022-12-03T01:16:47.295Z,16.85
2022-12-03T01:19:17.495Z,19.40
2022-12-03T01:21:45.936Z,19.38
2022-12-03T01:24:12.600Z,17.23
2022-12-03T01:26:39.094Z,17.40
2022-12-03T01:29:05.783Z,19.17
2022-12-03T01:31:50.604Z,19.48
2022-12-03T01:34:17.188Z,20.80
2022-12-03T01:36:43.553Z,17.45
2022-12-03T01:39:10.171Z,21.08
2022-12-03T01:41:37.099Z,19.60
2022-12-03T01:44:12.636Z,21.48
2022-12-03T01:49:14.249Z,19.52
2022-12-03T01:51:40.619Z,18.38
2022-12-03T01:54:16.623Z,21.00
2022-12-03T01:56:43.423Z,19.65
2022-12-03T01:59:15.527Z,23.48
2022-12-03T02:01:42.150Z,18.63
2022-12-03T02:04:12.773Z,22.85
2022-12-03T02:06:39.752Z,21.38
2022-12-03T02:09:08.654Z,19.25
2022-12-03T02:11:38.698Z,20.40
2022-12-03T02:14:11.787Z,21.92
2022-12-03T02:16:40.945Z,24.95
2022-12-03T02:19:21.218Z,20.95
2022-12-03T02:22:03.532Z,25.48
2022-12-03T02:24:35.563Z,24.45
2022-12-03T02:27:01.928Z,24.05
2022-12-03T02:29:28.316Z,22.65
2022-12-03T02:31:54.835Z,22.45
2022-12-03T02:34:44.606Z,23.73
2022-12-03T02:37:15.403Z,19.70
2022-12-03T02:39:46.304Z,24.63
2022-12-03T02:42:31.822Z,21.35
2022-12-03T02:45:05.140Z,25.40
2022-12-03T02:47:35.239Z,23.75
2022-12-03T02:50:02.477Z,22.65
2022-12-03T02:52:29.266Z,22.70
2022-12-03T02:54:55.992Z,23.83
2022-12-03T02:57:22.641Z,22.17
2022-12-03T02:59:49.070Z,23.77
2022-12-03T03:02:15.548Z,23.98
2022-12-03T03:04:44.448Z,20.88
2022-12-03T03:07:11.319Z,21.67
2022-12-03T03:09:37.798Z,20.23
2022-12-03T03:12:04.578Z,20.98
2022-12-03T03:14:32.542Z,20.98
2022-12-03T03:16:58.966Z,20.60
2022-12-03T03:19:26.413Z,19.58
2022-12-03T03:21:53.681Z,22.13
2022-12-03T03:24:21.611Z,19.52
2022-12-03T03:26:48.795Z,19.38
2022-12-03T03:29:15.563Z,23.10
2022-12-03T03:31:42.955Z,22.48
2022-12-03T03:34:09.925Z,20.58
2022-12-03T03:36:36.725Z,21.42
2022-12-03T03:39:05.533Z,20.67
2022-12-03T03:41:33.317Z,18.00
2022-12-03T03:43:59.896Z,21.63
2022-12-03T03:46:28.371Z,20.30
2022-12-03T03:48:54.747Z,21.10
2022-12-03T03:51:21.585Z,16.20
2022-12-03T03:53:49.895Z,19.55
2022-12-03T03:56:18.902Z,18.90
2022-12-03T03:58:45.360Z,19.55
2022-12-03T04:01:13.833Z,15.75
2022-12-03T04:03:41.117Z,20.15
2022-12-03T04:06:08.530Z,17.67
2022-12-03T04:08:34.954Z,17.25
2022-12-03T04:11:19.717Z,18.85
2022-12-03T04:13:46.082Z,17.52
2022-12-03T04:16:12.473Z,17.02
2022-12-03T04:18:44.703Z,14.05
2022-12-03T04:21:38.546Z,17.55
2022-12-03T04:24:06.494Z,17.42
2022-12-03T04:26:52.015Z,19.15
2022-12-03T04:29:19.386Z,17.95
2022-12-03T04:32:05.212Z,15.18
2022-12-03T04:34:49.932Z,16.17
2022-12-03T04:37:16.721Z,19.63
2022-12-03T04:39:43.070Z,16.25
2022-12-03T04:42:09.477Z,16.50
2022-12-03T04:44:38.503Z,12.73
2022-12-03T04:47:09.406Z,14.95
2022-12-03T04:49:38.711Z,15.93
2022-12-03T04:52:05.462Z,14.82
2022-12-03T04:54:31.812Z,17.35
2022-12-03T04:56:58.273Z,13.95
2022-12-03T04:59:24.674Z,18.45
2022-12-03T05:01:51.086Z,14.35
2022-12-03T05:04:17.554Z,14.68
2022-12-03T05:06:44.400Z,14.00
2022-12-03T05:09:11.993Z,16.33
2022-12-03T05:11:38.617Z,14.82
2022-12-03T05:14:05.460Z,13.30
2022-12-03T05:16:31.989Z,16.30
2022-12-03T05:18:58.399Z,17.10
2022-12-03T05:21:24.767Z,16.88
2022-12-03T05:23:51.122Z,15.18
2022-12-03T05:26:17.459Z,16.00
2022-12-03T05:28:44.191Z,14.05
2022-12-03T05:31:10.890Z,15.18
2022-12-03T05:33:42.482Z,14.70
2022-12-03T05:36:10.786Z,14.75
2022-12-03T05:38:37.163Z,13.68
2022-12-03T05:41:23.822Z,13.00
2022-12-03T05:43:50.187Z,13.73
2022-12-03T05:46:16.625Z,14.07
2022-12-03T05:48:43.027Z,12.35
2022-12-03T05:51:09.373Z,13.15
2022-12-03T05:53:35.920Z,13.80
2022-12-03T05:56:02.241Z,13.70
2022-12-03T05:58:28.629Z,11.32
2022-12-03T06:00:55.246Z,14.05
2022-12-03T06:03:21.676Z,12.07
2022-12-03T06:05:48.099Z,13.50
2022-12-03T06:08:14.532Z,12.27
2022-12-03T06:10:40.961Z,12.07
2022-12-03T06:13:07.258Z,12.30
2022-12-03T06:15:37.446Z,12.20
2022-12-03T06:18:06.678Z,13.68
2022-12-03T06:20:33.053Z,14.13
2022-12-03T06:22:59.427Z,13.00
2022-12-03T06:25:25.813Z,13.15
2022-12-03T06:27:52.142Z,10.25
2022-12-03T06:30:18.513Z,12.77
2022-12-03T06:32:44.814Z,14.85
2022-12-03T06:35:11.375Z,13.00
2022-12-03T06:37:37.686Z,13.80
2022-12-03T06:40:04.391Z,16.05
2022-12-03T06:42:30.709Z,14.18
2022-12-03T06:44:57.285Z,15.50
2022-12-03T06:47:23.778Z,15.48
2022-12-03T06:49:50.147Z,13.20
2022-12-03T06:52:16.503Z,14.48
2022-12-03T06:54:42.861Z,14.75
2022-12-03T06:57:09.177Z,14.05
2022-12-03T06:59:37.437Z,14.88
2022-12-03T07:02:04.650Z,12.68
2022-12-03T07:04:31.044Z,13.25
2022-12-03T07:06:57.481Z,12.43
2022-12-03T07:09:23.850Z,14.50
2022-12-03T07:11:50.165Z,16.83
2022-12-03T07:14:16.483Z,13.25
2022-12-03T07:16:43.687Z,16.40
2022-12-03T07:19:11.129Z,12.85
2022-12-03T07:21:38.026Z,13.27
2022-12-03T07:24:04.663Z,14.13
2022-12-03T07:26:31.103Z,12.63
2022-12-03T07:28:58.214Z,14.43
2022-12-03T07:31:24.819Z,14.57
2022-12-03T07:33:51.324Z,13.98
2022-12-03T07:36:17.761Z,11.48
2022-12-03T07:38:44.603Z,12.90
2022-12-03T07:41:11.019Z,12.15
2022-12-03T07:43:37.366Z,12.48
2022-12-03T07:46:03.707Z,12.43
2022-12-03T07:48:30.026Z,14.60
2022-12-03T07:50:56.458Z,15.63
2022-12-03T07:53:22.844Z,14.95
2022-12-03T07:55:49.211Z,14.98
2022-12-03T07:58:15.542Z,13.82
2022-12-03T08:00:41.968Z,12.98
2022-12-03T08:03:12.283Z,12.30
2022-12-03T08:05:38.657Z,12.77
2022-12-03T08:08:05.337Z,12.70
2022-12-03T08:10:31.929Z,13.18
2022-12-03T08:12:59.962Z,13.48
2022-12-03T08:15:33.658Z,15.32
2022-12-03T08:18:12.277Z,13.20
2022-12-03T08:20:40.853Z,16.23
2022-12-03T08:23:13.459Z,14.32
2022-12-03T08:25:40.003Z,14.57
2022-12-03T08:28:15.990Z,21.45
2022-12-03T08:30:43.736Z,12.88
2022-12-03T08:33:30.952Z,15.18
2022-12-03T08:35:57.276Z,16.60
2022-12-03T08:38:24.882Z,13.60
2022-12-03T08:40:55.120Z,14.25
2022-12-03T08:43:27.834Z,16.83
2022-12-03T08:45:55.939Z,16.75
2022-12-03T08:48:32.621Z,15.52
2022-12-03T08:51:18.888Z,15.30
2022-12-03T08:53:48.925Z,16.27
2022-12-03T08:56:24.303Z,13.38
2022-12-03T08:59:15.481Z,16.73
2022-12-03T09:01:44.324Z,15.43
2022-12-03T09:04:21.384Z,16.75
2022-12-03T09:06:47.942Z,17.48
2022-12-03T09:09:15.631Z,14.88
2022-12-03T09:11:43.172Z,16.58
2022-12-03T09:14:15.120Z,15.75
2022-12-03T09:16:44.713Z,16.63
2022-12-03T09:19:11.180Z,16.15
2022-12-03T09:21:37.522Z,15.15
2022-12-03T09:24:03.943Z,14.88
2022-12-03T09:26:30.307Z,14.90
2022-12-03T09:28:56.643Z,15.30
2022-12-03T09:31:22.974Z,15.05
2022-12-03T09:33:49.445Z,16.88
2022-12-03T09:36:15.815Z,14.85
2022-12-03T09:38:46.238Z,15.65
2022-12-03T09:41:14.446Z,15.75
2022-12-03T09:44:03.355Z,17.02
2022-12-03T09:46:27.452Z,18.55
2022-12-03T09:48:55.353Z,19.85
2022-12-03T09:51:21.678Z,17.70
2022-12-03T09:53:48.385Z,18.27
2022-12-03T09:56:23.188Z,17.75
2022-12-03T09:58:50.454Z,16.40
2022-12-03T10:01:17.523Z,18.83
2022-12-03T10:03:47.689Z,16.50
2022-12-03T10:06:17.871Z,18.73
2022-12-03T10:08:48.246Z,17.20
2022-12-03T10:11:15.738Z,17.77
2022-12-03T10:13:42.310Z,20.70
2022-12-03T10:16:15.284Z,18.75
2022-12-03T10:18:48.337Z,17.02
2022-12-03T10:21:24.232Z,19.58
2022-12-03T10:24:39.750Z,20.95
2022-12-03T10:27:30.085Z,19.95
2022-12-03T10:29:59.512Z,16.98
2022-12-03T10:32:44.341Z,17.35
2022-12-03T10:35:13.898Z,20.27
2022-12-03T10:37:59.180Z,20.33
2022-12-03T10:40:31.173Z,19.33
2022-12-03T10:43:35.675Z,19.23
2022-12-03T10:46:04.039Z,21.10
2022-12-03T10:48:30.942Z,17.30
2022-12-03T10:51:04.754Z,17.40
2022-12-03T10:53:33.802Z,19.45
2022-12-03T10:56:03.100Z,20.13
2022-12-03T10:58:33.902Z,18.45
2022-12-03T11:01:03.382Z,21.33
2022-12-03T11:03:34.589Z,19.08
2022-12-03T11:06:02.314Z,18.27
2022-12-03T11:08:35.232Z,20.40
2022-12-03T11:11:03.343Z,19.10
2022-12-03T11:13:32.360Z,19.98
2022-12-03T11:16:00.656Z,16.65
2022-12-03T11:18:36.084Z,22.33
2022-12-03T11:21:14.052Z,18.67
2022-12-03T11:23:46.307Z,19.73
2022-12-03T11:26:18.946Z,22.38
2022-12-03T11:28:45.712Z,24.38
2022-12-03T11:31:38.100Z,24.20
2022-12-03T11:34:13.444Z,18.40
2022-12-03T11:37:11.574Z,22.77
2022-12-03T11:39:55.549Z,17.17
2022-12-03T11:42:27.894Z,20.75
2022-12-03T11:45:06.684Z,23.80
2022-12-03T11:47:44.086Z,18.33
2022-12-03T11:50:23.426Z,22.10
2022-12-03T11:52:59.167Z,20.63
2022-12-03T11:55:30.232Z,22.55
2022-12-03T11:57:59.265Z,24.02
2022-12-03T12:00:25.743Z,19.55
2022-12-03T12:02:54.709Z,21.52
2022-12-03T12:05:28.198Z,24.48
2022-12-03T12:07:55.488Z,22.55
2022-12-03T12:10:47.709Z,20.73
2022-12-03T12:13:32.197Z,22.02
2022-12-03T12:16:04.070Z,23.02
2022-12-03T12:18:45.168Z,26.58
2022-12-03T12:21:41.915Z,24.63
2022-12-03T12:24:31.442Z,21.70
2022-12-03T12:27:00.231Z,24.67
2022-12-03T12:29:26.725Z,21.10
2022-12-03T12:32:00.765Z,21.50
2022-12-03T12:34:27.267Z,23.25
2022-12-03T12:36:56.642Z,26.65
2022-12-03T12:39:23.101Z,22.95
2022-12-03T12:41:50.433Z,24.52
2022-12-03T12:44:18.226Z,21.85
2022-12-03T12:46:47.995Z,26.65
2022-12-03T12:49:15.490Z,24.55
2022-12-03T12:51:46.576Z,25.75
2022-12-03T12:54:15.511Z,24.67
2022-12-03T12:56:47.047Z,24.75
2022-12-03T12:59:21.867Z,43.78
2022-12-03T13:01:49.939Z,28.10
2022-12-03T13:04:23.793Z,23.75
2022-12-03T13:06:53.065Z,25.60
2022-12-03T13:09:26.519Z,23.85
2022-12-03T13:12:00.205Z,22.85
2022-12-03T13:14:31.883Z,21.67
2022-12-03T13:17:00.851Z,24.70
2022-12-03T13:19:39.584Z,25.98
2022-12-03T13:24:50.959Z,23.90
2022-12-03T13:27:17.246Z,23.73
2022-12-03T13:29:45.062Z,29.92
2022-12-03T13:32:15.819Z,21.30
2022-12-03T13:34:42.612Z,25.23
2022-12-03T13:37:27.890Z,24.60
2022-12-03T13:39:58.044Z,35.67
2022-12-03T13:42:40.837Z,20.85
2022-12-03T13:45:16.045Z,25.60
2022-12-03T13:47:48.719Z,22.42
2022-12-03T13:50:20.994Z,26.52
2022-12-03T13:52:47.755Z,23.75
2022-12-03T13:55:26.399Z,29.52
2022-12-03T13:57:53.566Z,26.33
2022-12-03T14:00:20.254Z,19.05
2022-12-03T14:02:46.720Z,22.40
2022-12-03T14:05:13.401Z,25.15
2022-12-03T14:07:39.968Z,24.70
2022-12-03T14:10:08.215Z,26.88
2022-12-03T14:12:34.914Z,28.77
2022-12-03T14:15:02.344Z,24.92
2022-12-03T14:17:30.685Z,26.70
2022-12-03T14:20:01.308Z,24.48
2022-12-03T14:22:27.866Z,26.48
2022-12-03T14:24:54.392Z,29.90
2022-12-03T14:27:21.951Z,27.05
2022-12-03T14:29:48.402Z,25.42
2022-12-03T14:32:14.850Z,25.00
2022-12-03T14:34:41.250Z,24.45
2022-12-03T14:37:07.647Z,26.92
2022-12-03T14:39:34.001Z,28.08
2022-12-03T14:42:16.427Z,23.77
2022-12-03T14:44:45.776Z,25.70
2022-12-03T14:47:13.413Z,27.13
2022-12-03T14:49:39.922Z,24.95
2022-12-03T14:52:11.362Z,24.65
2022-12-03T14:54:42.686Z,56.47
2022-12-03T14:57:11.519Z,28.17
2022-12-03T14:59:38.862Z,30.02
2022-12-03T15:02:05.234Z,27.58
2022-12-03T15:04:31.619Z,30.02
2022-12-03T15:06:57.931Z,28.85
2022-12-03T15:09:24.237Z,26.13
2022-12-03T15:11:50.579Z,28.85
2022-12-03T15:14:16.974Z,24.90
2022-12-03T15:16:43.398Z,27.40
2022-12-03T15:19:10.028Z,27.27
2022-12-03T15:21:36.350Z,25.98
2022-12-03T15:24:03.155Z,28.63
2022-12-03T15:26:29.910Z,28.05
2022-12-03T15:28:56.306Z,27.98
2022-12-03T15:31:22.710Z,28.98
2022-12-03T15:33:49.227Z,26.00
2022-12-03T15:36:16.699Z,27.33
2022-12-03T15:38:43.066Z,26.08
2022-12-03T15:41:23.198Z,25.48
2022-12-03T15:43:51.319Z,28.50
2022-12-03T15:46:17.822Z,28.40
2022-12-03T15:48:44.312Z,24.00
2022-12-03T15:51:10.674Z,24.02
2022-12-03T15:53:37.032Z,23.73
2022-12-03T15:56:03.590Z,26.27
2022-12-03T15:58:29.959Z,30.98
2022-12-03T16:00:56.321Z,25.52
2022-12-03T16:03:22.709Z,26.98
2022-12-03T16:05:49.764Z,26.65
2022-12-03T16:08:16.224Z,24.92
2022-12-03T16:10:42.628Z,24.55
2022-12-03T16:13:09.011Z,23.67
2022-12-03T16:15:35.404Z,24.33
2022-12-03T16:18:02.699Z,26.63
2022-12-03T16:20:29.030Z,28.45
2022-12-03T16:22:55.379Z,26.92
2022-12-03T16:25:21.871Z,27.30
2022-12-03T16:27:48.335Z,26.27
2022-12-03T16:30:14.860Z,24.75
2022-12-03T16:32:41.663Z,23.67
2022-12-03T16:35:08.486Z,24.67
2022-12-03T16:37:34.885Z,25.63
2022-12-03T16:40:01.452Z,26.55
2022-12-03T16:42:27.969Z,24.45
2022-12-03T16:45:11.855Z,29.10
2022-12-03T16:47:38.305Z,27.77
2022-12-03T16:50:07.610Z,24.00
2022-12-03T16:52:34.859Z,23.98
2022-12-03T16:55:01.573Z,31.17
2022-12-03T16:57:33.341Z,24.10
2022-12-03T17:00:00.691Z,27.27
2022-12-03T17:02:27.427Z,28.33
2022-12-03T17:04:53.884Z,25.98
2022-12-03T17:07:20.393Z,27.38
2022-12-03T17:09:46.720Z,31.23
2022-12-03T17:12:13.147Z,28.73
2022-12-03T17:14:39.576Z,29.48
2022-12-03T17:17:05.918Z,34.80
2022-12-03T17:19:32.315Z,28.13
2022-12-03T17:21:59.645Z,28.15
2022-12-03T17:24:26.036Z,25.67
2022-12-03T17:26:52.454Z,26.40
2022-12-03T17:29:18.773Z,22.80
2022-12-03T17:31:45.224Z,25.73
2022-12-03T17:34:11.700Z,24.88
2022-12-03T17:36:38.122Z,25.65
2022-12-03T17:39:04.464Z,28.95
2022-12-03T17:41:30.883Z,27.73
2022-12-03T17:43:57.242Z,28.23
2022-12-03T17:46:23.656Z,25.58
2022-12-03T17:48:50.264Z,25.13
2022-12-03T17:51:16.739Z,25.65
2022-12-03T17:53:43.100Z,25.63
2022-12-03T17:56:09.603Z,25.92
2022-12-03T17:58:36.086Z,30.27
2022-12-03T18:01:03.350Z,27.90
2022-12-03T18:03:30.829Z,22.42
2022-12-03T18:05:57.273Z,23.33
2022-12-03T18:08:23.721Z,31.48
2022-12-03T18:10:50.176Z,27.38
2022-12-03T18:13:16.562Z,27.42
2022-12-03T18:15:43.008Z,28.13
2022-12-03T18:18:09.462Z,26.85
2022-12-03T18:20:36.287Z,25.08
2022-12-03T18:23:03.373Z,30.23
2022-12-03T18:25:30.378Z,26.05
2022-12-03T18:27:56.964Z,30.75
2022-12-03T18:30:23.499Z,27.02
2022-12-03T18:32:50.550Z,25.45
2022-12-03T18:35:17.034Z,27.38
2022-12-03T18:37:43.699Z,28.55
2022-12-03T18:40:20.004Z,33.88
2022-12-03T18:42:47.083Z,30.10
2022-12-03T18:45:15.217Z,28.50
2022-12-03T18:47:42.231Z,29.10
2022-12-03T18:50:09.805Z,45.38
2022-12-03T18:52:36.411Z,28.58
2022-12-03T18:55:04.201Z,25.13
2022-12-03T18:57:30.574Z,31.42
2022-12-03T18:59:57.232Z,23.23
2022-12-03T19:02:54.347Z,28.38
2022-12-03T19:05:10.693Z,29.88
2022-12-03T19:07:37.249Z,25.08
2022-12-03T19:10:04.271Z,29.35
2022-12-03T19:12:31.095Z,28.50
2022-12-03T19:14:57.475Z,28.42
2022-12-03T19:17:23.932Z,26.77
2022-12-03T19:19:50.338Z,28.45
2022-12-03T19:22:16.767Z,27.30
2022-12-03T19:24:43.603Z,25.10
2022-12-03T19:27:10.120Z,28.95
2022-12-03T19:29:36.574Z,27.15
2022-12-03T19:32:03.391Z,29.67
2022-12-03T19:34:29.926Z,28.48
2022-12-03T19:36:56.334Z,27.38
2022-12-03T19:39:22.711Z,28.35
2022-12-03T19:41:49.217Z,30.30
2022-12-03T19:44:17.415Z,26.60
2022-12-03T19:46:44.591Z,26.15
2022-12-03T19:49:11.735Z,29.30
2022-12-03T19:51:38.108Z,27.27
2022-12-03T19:54:06.514Z,30.50
2022-12-03T19:56:33.443Z,31.15
2022-12-03T19:58:59.897Z,29.80
2022-12-03T20:01:30.031Z,25.38
2022-12-03T20:03:58.481Z,31.95
2022-12-03T20:06:28.450Z,29.02
2022-12-03T20:09:02.667Z,27.55
2022-12-03T20:11:31.825Z,28.88
2022-12-03T20:14:01.450Z,27.65
2022-12-03T20:16:29.256Z,27.15
2022-12-03T20:18:58.665Z,28.02
2022-12-03T20:21:25.908Z,27.80
2022-12-03T20:23:52.990Z,30.25
2022-12-03T20:26:20.761Z,33.20
2022-12-03T20:28:48.121Z,23.90
2022-12-03T20:31:20.230Z,24.95
2022-12-03T20:33:49.287Z,25.92
2022-12-03T20:36:18.886Z,27.83
2022-12-03T20:38:45.311Z,26.15
2022-12-03T20:41:14.144Z,32.47
2022-12-03T20:43:41.367Z,28.55
2022-12-03T20:46:08.650Z,25.95
2022-12-03T20:48:35.694Z,23.75
2022-12-03T20:51:10.578Z,27.02
2022-12-03T20:53:37.805Z,23.13
2022-12-03T20:56:05.608Z,24.63
2022-12-03T20:58:32.922Z,23.02
2022-12-03T21:01:15.193Z,23.92
2022-12-03T21:03:42.258Z,31.90
2022-12-03T21:06:08.646Z,22.63
2022-12-03T21:08:41.692Z,26.83
2022-12-03T21:11:20.921Z,19.33
2022-12-03T21:13:47.699Z,21.83
2022-12-03T21:16:18.078Z,21.98
2022-12-03T21:18:45.004Z,23.92
2022-12-03T21:21:12.933Z,22.40
2022-12-03T21:23:39.500Z,21.40
2022-12-03T21:26:08.618Z,23.17
2022-12-03T21:28:35.345Z,18.02
2022-12-03T21:31:03.647Z,22.50
2022-12-03T21:33:30.661Z,20.45
2022-12-03T21:35:57.488Z,23.55
2022-12-03T21:38:24.359Z,19.80
2022-12-03T21:40:50.868Z,22.27
2022-12-03T21:43:17.242Z,20.85
2022-12-03T21:45:43.900Z,23.45
2022-12-03T21:48:11.105Z,16.10
2022-12-03T21:50:37.513Z,19.40
2022-12-03T21:53:03.818Z,20.92
2022-12-03T21:55:30.249Z,25.00
2022-12-03T21:57:56.631Z,20.38
2022-12-03T22:00:23.026Z,24.58
2022-12-03T22:02:49.401Z,22.98
2022-12-03T22:05:15.929Z,25.60
2022-12-03T22:07:42.333Z,21.30
2022-12-03T22:10:10.426Z,22.45
2022-12-03T22:12:36.993Z,21.33
2022-12-03T22:15:05.040Z,20.63
2022-12-03T22:17:31.607Z,19.90
2022-12-03T22:19:57.999Z,25.20
2022-12-03T22:22:24.398Z,25.27
2022-12-03T22:24:50.770Z,23.67
2022-12-03T22:27:18.078Z,21.58
2022-12-03T22:29:45.446Z,22.98
2022-12-03T22:32:11.833Z,22.30
2022-12-03T22:34:38.215Z,20.50
2022-12-03T22:37:04.954Z,21.77
2022-12-03T22:39:31.410Z,22.23
2022-12-03T22:41:57.811Z,20.50
2022-12-03T22:44:24.163Z,28.65
2022-12-03T22:46:50.610Z,25.33
2022-12-03T22:49:17.039Z,23.02
2022-12-03T22:51:47.419Z,32.35
2022-12-03T22:54:15.001Z,26.80
2022-12-03T22:56:42.666Z,23.08
2022-12-03T22:59:09.146Z,28.25
2022-12-03T23:01:39.113Z,22.63
2022-12-03T23:04:06.945Z,22.42
2022-12-03T23:06:34.586Z,20.60
2022-12-03T23:09:00.993Z,25.30
2022-12-03T23:11:27.839Z,24.45
2022-12-03T23:13:54.311Z,26.08
2022-12-03T23:16:23.961Z,26.98
2022-12-03T23:18:50.448Z,20.42
2022-12-03T23:21:24.007Z,21.98
2022-12-03T23:23:55.145Z,24.35
2022-12-03T23:26:22.527Z,19.42
2022-12-03T23:28:48.930Z,22.52
2022-12-03T23:31:20.181Z,23.55
2022-12-03T23:33:47.071Z,20.20
2022-12-03T23:36:13.798Z,19.48
2022-12-03T23:38:40.683Z,19.75
2022-12-03T23:41:11.032Z,23.00
2022-12-03T23:43:38.401Z,22.17
2022-12-03T23:46:17.165Z,17.00
2022-12-03T23:48:43.736Z,18.38
2022-12-03T23:51:12.476Z,21.13
2022-12-03T23:53:39.995Z,21.38
2022-12-03T23:56:15.952Z,18.73
2022-12-03T23:58:43.299Z,19.00
